Time;durP1;ratioP1;P1;durP2;ratioP2;P2;SDS_P1;SDS_P2;PMS_P1;PMS_P2;Temp;Humidity;BMP_temperature;BMP_pressure;BME280_temperature;BME280_humidity;BME280_pressure;Samples;Min_cycle;Max_cycle;Signal;HPM_P1;HPM_P2
2021/08/19 00:00:42;;;;;;;5.60;4.63;;;17.30;99.90;;;;;;4959766;28;20457;-72
2021/08/19 00:03:09;;;;;;;4.70;4.30;;;17.20;99.90;;;;;;4954948;28;20419;-72
2021/08/19 00:05:36;;;;;;;6.10;4.50;;;17.20;99.90;;;;;;4973180;28;20415;-72
2021/08/19 00:08:03;;;;;;;4.80;4.40;;;17.20;99.90;;;;;;4973102;28;20454;-73
2021/08/19 00:10:31;;;;;;;5.50;5.00;;;17.20;99.90;;;;;;4973304;28;20567;-72
2021/08/19 00:12:59;;;;;;;8.10;5.10;;;17.20;99.90;;;;;;4975618;28;20907;-73
2021/08/19 00:15:26;;;;;;;6.00;5.40;;;17.20;99.90;;;;;;4958423;28;20932;-73
2021/08/19 00:17:54;;;;;;;5.40;4.90;;;17.30;99.90;;;;;;4975527;28;20419;-72
2021/08/19 00:20:21;;;;;;;5.70;5.10;;;17.20;99.90;;;;;;4966833;28;20922;-73
2021/08/19 00:22:48;;;;;;;5.13;4.67;;;17.20;99.90;;;;;;4959154;28;20441;-72
2021/08/19 00:25:15;;;;;;;5.40;4.90;;;17.20;99.90;;;;;;4937243;29;20425;-73
2021/08/19 00:27:42;;;;;;;5.80;5.20;;;17.20;99.90;;;;;;4936086;29;20449;-72
2021/08/19 00:30:10;;;;;;;6.30;5.53;;;17.20;99.90;;;;;;4953500;28;20523;-72
2021/08/19 00:32:37;;;;;;;5.90;5.17;;;17.20;99.90;;;;;;4955763;28;20467;-73
2021/08/19 00:35:06;;;;;;;5.90;5.37;;;17.20;99.90;;;;;;4974838;28;20928;-72
2021/08/19 00:37:33;;;;;;;5.77;5.27;;;17.20;99.90;;;;;;4975115;28;20517;-73
2021/08/19 00:40:01;;;;;;;6.00;5.30;;;17.20;99.90;;;;;;4975044;28;20464;-73
2021/08/19 00:42:27;;;;;;;5.37;4.87;;;17.20;99.90;;;;;;4949532;28;20805;-73
2021/08/19 00:44:54;;;;;;;5.77;5.17;;;17.20;99.90;;;;;;4959018;28;20408;-73
2021/08/19 00:47:21;;;;;;;5.50;5.00;;;17.20;99.90;;;;;;4953515;28;20783;-73
2021/08/19 00:49:48;;;;;;;7.20;5.53;;;17.20;99.90;;;;;;4953476;28;20442;-73
2021/08/19 00:52:17;;;;;;;5.77;5.10;;;17.20;99.90;;;;;;4953353;28;20496;-73
2021/08/19 00:54:45;;;;;;;8.67;5.30;;;17.20;99.90;;;;;;4956091;28;20446;-73
2021/08/19 00:57:12;;;;;;;6.20;5.57;;;17.20;99.90;;;;;;4974958;28;20448;-73
2021/08/19 00:59:40;;;;;;;6.13;5.10;;;17.20;99.90;;;;;;4974695;28;20518;-72
2021/08/19 01:02:08;;;;;;;6.43;5.73;;;17.30;99.90;;;;;;4974975;28;20456;-73
2021/08/19 01:04:37;;;;;;;7.10;5.67;;;17.30;99.90;;;;;;4964044;28;20948;-73
2021/08/19 01:07:04;;;;;;;6.20;5.60;;;17.20;99.90;;;;;;4957865;28;20424;-72
2021/08/19 01:09:33;;;;;;;7.87;6.27;;;17.20;99.90;;;;;;4971926;28;20440;-73
2021/08/19 01:12:00;;;;;;;6.53;5.77;;;17.30;99.90;;;;;;4972247;28;20462;-73
2021/08/19 01:14:27;;;;;;;7.00;6.20;;;17.20;99.90;;;;;;4972332;28;20982;-72
2021/08/19 01:16:54;;;;;;;5.23;4.73;;;17.30;99.90;;;;;;4972353;28;20464;-72
2021/08/19 01:19:23;;;;;;;7.57;6.57;;;17.30;99.90;;;;;;4974640;28;20445;-72
2021/08/19 01:21:51;;;;;;;5.93;5.20;;;17.30;99.90;;;;;;4973244;28;20454;-72
2021/08/19 01:24:19;;;;;;;7.00;5.00;;;17.30;99.90;;;;;;4973256;28;20954;-73
2021/08/19 01:26:48;;;;;;;6.20;5.67;;;17.30;99.90;;;;;;4964676;28;20444;-72
2021/08/19 01:29:17;;;;;;;6.37;5.73;;;17.30;99.90;;;;;;4958192;28;20444;-72
2021/08/19 01:31:57;;;;;;;7.20;5.57;;;17.30;99.90;;;;;;4971281;28;20998;-73
2021/08/19 01:34:24;;;;;;;6.83;5.53;;;17.30;99.90;;;;;;4970794;28;20414;-72
2021/08/19 01:36:51;;;;;;;7.33;6.20;;;17.30;99.90;;;;;;4972248;28;20459;-73
2021/08/19 01:39:18;;;;;;;7.07;6.37;;;17.30;99.90;;;;;;4972637;28;20785;-72
2021/08/19 01:41:45;;;;;;;7.80;7.00;;;17.30;99.90;;;;;;4976103;28;20471;-72
2021/08/19 01:44:12;;;;;;;8.57;6.87;;;17.30;99.90;;;;;;4977973;28;20503;-74
2021/08/19 01:46:40;;;;;;;8.47;6.80;;;17.30;99.90;;;;;;4978215;28;20437;-73
2021/08/19 01:49:07;;;;;;;8.73;6.87;;;17.30;99.90;;;;;;4966282;28;20440;-74
2021/08/19 01:51:34;;;;;;;7.57;6.70;;;17.30;99.90;;;;;;4964542;28;20454;-74
2021/08/19 01:54:01;;;;;;;7.13;6.43;;;17.30;99.90;;;;;;4975103;28;20475;-73
2021/08/19 01:56:28;;;;;;;6.00;5.40;;;17.40;99.90;;;;;;4975398;28;20451;-73
2021/08/19 01:58:56;;;;;;;7.60;6.20;;;17.30;99.90;;;;;;4976025;28;20467;-73
2021/08/19 02:01:24;;;;;;;6.80;6.10;;;17.30;99.90;;;;;;4976181;28;20485;-74
2021/08/19 02:03:53;;;;;;;7.20;6.57;;;17.40;99.90;;;;;;4977805;28;20451;-74
2021/08/19 02:06:21;;;;;;;8.70;6.23;;;17.30;99.90;;;;;;4960760;28;20423;-73
2021/08/19 02:08:48;;;;;;;7.03;6.10;;;17.40;99.90;;;;;;4977778;28;20425;-73
2021/08/19 02:11:15;;;;;;;7.07;6.37;;;17.40;99.90;;;;;;4965210;28;20494;-73
2021/08/19 02:13:42;;;;;;;6.80;5.93;;;17.30;99.90;;;;;;4964901;28;20428;-73
2021/08/19 02:16:09;;;;;;;6.93;6.00;;;17.30;99.90;;;;;;4974738;28;20802;-74
2021/08/19 02:18:36;;;;;;;6.17;5.67;;;17.30;99.90;;;;;;4975309;28;20440;-73
2021/08/19 02:21:04;;;;;;;7.37;5.83;;;17.30;99.90;;;;;;4975283;28;20435;-73
2021/08/19 02:23:31;;;;;;;7.73;5.90;;;17.30;99.90;;;;;;4975739;28;20455;-73
2021/08/19 02:25:58;;;;;;;6.93;6.23;;;17.30;99.90;;;;;;4977571;28;20775;-72
2021/08/19 02:28:25;;;;;;;6.73;5.37;;;17.40;99.90;;;;;;4977528;28;20447;-73
2021/08/19 02:30:52;;;;;;;6.50;5.90;;;17.30;99.90;;;;;;4977559;28;20443;-73
2021/08/19 02:33:19;;;;;;;6.07;5.50;;;17.30;99.90;;;;;;4965019;28;20413;-73
2021/08/19 02:35:46;;;;;;;8.10;6.57;;;17.40;99.90;;;;;;4960726;28;20416;-73
2021/08/19 02:38:14;;;;;;;8.50;6.50;;;17.30;99.90;;;;;;4954877;28;20537;-73
2021/08/19 02:40:41;;;;;;;7.30;5.83;;;17.40;99.90;;;;;;4955544;28;20444;-73
2021/08/19 02:43:08;;;;;;;6.20;5.60;;;17.40;99.90;;;;;;4955663;28;20480;-73
2021/08/19 02:45:35;;;;;;;8.57;6.20;;;17.40;99.90;;;;;;4963472;28;20473;-73
2021/08/19 02:48:03;;;;;;;6.70;6.10;;;17.40;99.90;;;;;;4977111;28;20861;-74
2021/08/19 02:50:30;;;;;;;6.90;6.20;;;17.40;99.90;;;;;;4959613;28;20824;-73
2021/08/19 02:52:58;;;;;;;6.10;5.30;;;17.40;99.90;;;;;;4976623;28;20993;-74
2021/08/19 02:55:26;;;;;;;7.83;5.40;;;17.40;99.90;;;;;;4947194;28;20472;-74
2021/08/19 02:57:53;;;;;;;7.17;6.47;;;17.40;99.90;;;;;;4964367;28;20640;-73
2021/08/19 03:00:20;;;;;;;7.83;6.37;;;17.40;99.90;;;;;;4974072;28;20434;-74
2021/08/19 03:02:47;;;;;;;6.37;5.77;;;17.40;99.90;;;;;;4974345;28;20453;-74
2021/08/19 03:05:14;;;;;;;6.87;5.80;;;17.40;99.90;;;;;;4974483;28;20456;-75
2021/08/19 03:07:41;;;;;;;8.80;6.20;;;17.40;99.90;;;;;;4975372;28;20427;-73
2021/08/19 03:10:09;;;;;;;6.83;5.60;;;17.40;99.90;;;;;;4959515;28;20467;-73
2021/08/19 03:12:37;;;;;;;7.60;5.70;;;17.40;99.90;;;;;;4959414;28;20491;-74
2021/08/19 03:15:05;;;;;;;6.23;5.63;;;17.40;99.90;;;;;;4976649;28;20430;-74
2021/08/19 03:17:33;;;;;;;13.13;6.27;;;17.40;99.90;;;;;;4945978;28;20444;-73
2021/08/19 03:20:00;;;;;;;9.67;6.43;;;17.40;99.90;;;;;;4959399;28;20436;-73
2021/08/19 03:22:28;;;;;;;9.23;5.20;;;17.50;99.90;;;;;;4937534;29;20968;-73
2021/08/19 03:24:55;;;;;;;6.00;5.40;;;17.50;99.90;;;;;;4937777;29;20428;-74
2021/08/19 03:27:22;;;;;;;6.03;5.43;;;17.50;99.90;;;;;;4955057;28;20512;-74
2021/08/19 03:29:50;;;;;;;6.30;5.70;;;17.50;99.90;;;;;;4963812;28;20490;-74
2021/08/19 03:32:17;;;;;;;6.90;5.23;;;17.50;99.90;;;;;;4976081;28;20574;-73
2021/08/19 03:34:44;;;;;;;9.33;6.43;;;17.50;99.90;;;;;;4976317;28;20533;-74
2021/08/19 03:37:11;;;;;;;7.50;5.30;;;17.50;99.90;;;;;;4976266;28;20438;-73
2021/08/19 03:39:38;;;;;;;8.27;4.70;;;17.50;99.90;;;;;;4962516;28;20436;-73
2021/08/19 03:42:05;;;;;;;5.37;4.87;;;17.40;99.90;;;;;;4958505;28;20440;-74
2021/08/19 03:44:32;;;;;;;6.33;4.97;;;17.40;99.90;;;;;;4954376;28;20444;-74
2021/08/19 03:47:01;;;;;;;5.07;4.57;;;17.50;99.90;;;;;;4954072;28;20399;-74
2021/08/19 03:49:28;;;;;;;7.40;5.40;;;17.40;99.90;;;;;;4954625;28;20448;-74
2021/08/19 03:51:54;;;;;;;6.67;5.37;;;17.50;99.90;;;;;;4963714;28;20499;-74
2021/08/19 03:54:21;;;;;;;5.17;4.67;;;17.50;99.90;;;;;;4975907;28;20445;-74
2021/08/19 03:56:49;;;;;;;9.10;6.80;;;17.40;99.90;;;;;;4975906;28;20440;-73
2021/08/19 03:59:17;;;;;;;7.73;5.03;;;17.50;99.90;;;;;;4975729;28;20443;-74
2021/08/19 04:01:44;;;;;;;6.10;5.40;;;17.40;99.90;;;;;;4961436;28;20456;-73
2021/08/19 04:04:12;;;;;;;8.73;6.23;;;17.40;99.90;;;;;;4962421;28;20409;-73
2021/08/19 04:06:39;;;;;;;8.30;6.27;;;17.40;99.90;;;;;;4973509;28;20443;-74
2021/08/19 04:09:06;;;;;;;6.17;5.57;;;17.40;99.90;;;;;;4973130;28;20562;-74
2021/08/19 04:11:33;;;;;;;6.20;5.47;;;17.40;99.90;;;;;;4973560;28;20434;-73
2021/08/19 04:14:00;;;;;;;8.93;6.20;;;17.40;99.90;;;;;;4973796;28;20435;-74
2021/08/19 04:16:27;;;;;;;7.40;5.87;;;17.40;99.90;;;;;;4975436;28;20415;-74
2021/08/19 04:18:54;;;;;;;7.53;5.90;;;17.40;99.90;;;;;;4975741;28;20955;-74
2021/08/19 04:21:22;;;;;;;8.23;5.80;;;17.40;99.90;;;;;;4975336;28;20551;-73
2021/08/19 04:23:49;;;;;;;8.40;5.87;;;17.40;99.90;;;;;;4961104;28;20768;-73
2021/08/19 04:26:16;;;;;;;5.57;5.03;;;17.40;99.90;;;;;;4962750;28;20458;-74
2021/08/19 04:28:43;;;;;;;8.80;5.90;;;17.40;99.90;;;;;;4973021;28;20426;-74
2021/08/19 04:31:09;;;;;;;6.50;5.73;;;17.40;99.90;;;;;;4972522;28;20976;-74
2021/08/19 04:33:37;;;;;;;10.50;5.77;;;17.40;99.90;;;;;;4972908;28;20514;-73
2021/08/19 04:36:04;;;;;;;8.10;5.40;;;17.40;99.90;;;;;;4973953;28;20428;-73
2021/08/19 04:38:33;;;;;;;6.00;5.40;;;17.40;99.90;;;;;;4957988;28;20423;-74
2021/08/19 04:41:01;;;;;;;6.73;5.40;;;17.40;99.90;;;;;;4974816;28;20940;-73
2021/08/19 04:43:28;;;;;;;8.27;4.93;;;17.40;99.90;;;;;;4974776;28;20447;-74
2021/08/19 04:45:55;;;;;;;7.27;5.37;;;17.40;99.90;;;;;;4960408;28;20774;-74
2021/08/19 04:48:22;;;;;;;6.53;5.30;;;17.40;99.90;;;;;;4939980;28;21086;-74
2021/08/19 04:50:49;;;;;;;8.27;5.57;;;17.40;99.90;;;;;;4953573;28;20458;-73
2021/08/19 04:53:16;;;;;;;6.00;5.40;;;17.40;99.90;;;;;;4952961;28;20998;-73
2021/08/19 04:55:44;;;;;;;7.30;5.33;;;17.40;99.90;;;;;;4953199;28;20548;-74
2021/08/19 04:58:11;;;;;;;6.33;4.73;;;17.40;99.90;;;;;;4963901;28;20498;-76
2021/08/19 05:00:38;;;;;;;6.13;5.30;;;17.40;99.90;;;;;;4974715;28;20482;-75
2021/08/19 05:03:05;;;;;;;6.37;4.90;;;17.40;99.90;;;;;;4957691;28;20462;-75
2021/08/19 05:05:32;;;;;;;9.47;5.53;;;17.40;99.90;;;;;;4974713;28;20421;-75
2021/08/19 05:07:59;;;;;;;7.20;5.30;;;17.40;99.90;;;;;;4959861;28;20422;-75
2021/08/19 05:10:26;;;;;;;8.47;5.37;;;17.40;99.90;;;;;;4956533;28;20482;-75
2021/08/19 05:12:54;;;;;;;6.67;4.87;;;17.40;99.90;;;;;;4953272;28;20499;-74
2021/08/19 05:15:22;;;;;;;7.70;4.93;;;17.40;99.90;;;;;;4952832;28;20431;-77
2021/08/19 05:17:49;;;;;;;5.70;5.13;;;17.40;99.90;;;;;;4958887;28;20430;-76
2021/08/19 05:20:17;;;;;;;6.30;4.80;;;17.40;99.90;;;;;;4967382;28;20443;-76
2021/08/19 05:22:43;;;;;;;6.97;6.27;;;17.40;99.90;;;;;;4941337;28;20445;-76
2021/08/19 05:25:11;;;;;;;6.20;5.30;;;17.40;99.90;;;;;;4960882;28;20459;-76
2021/08/19 05:27:38;;;;;;;6.40;5.10;;;17.40;99.90;;;;;;4958824;28;20448;-76
2021/08/19 05:30:09;;;;;;;7.17;6.13;;;17.40;99.90;;;;;;4952845;28;20468;-76
2021/08/19 05:32:36;;;;;;;5.50;4.70;;;17.40;99.90;;;;;;4972267;28;20534;-76
2021/08/19 05:35:03;;;;;;;5.13;4.63;;;17.40;99.90;;;;;;4973282;28;20797;-76
2021/08/19 05:37:30;;;;;;;5.90;5.20;;;17.40;99.90;;;;;;4974090;28;20419;-76
2021/08/19 05:39:57;;;;;;;5.40;4.90;;;17.40;99.90;;;;;;4974080;28;20449;-76
2021/08/19 05:42:24;;;;;;;6.00;4.77;;;17.40;99.90;;;;;;4971442;28;20444;-76
2021/08/19 05:44:51;;;;;;;7.70;6.17;;;17.40;99.90;;;;;;4949220;28;20470;-75
2021/08/19 05:47:19;;;;;;;7.43;5.73;;;17.40;99.90;;;;;;4964738;28;20438;-75
2021/08/19 05:49:46;;;;;;;7.77;6.70;;;17.50;99.90;;;;;;4971617;28;20458;-76
2021/08/19 05:52:15;;;;;;;7.80;6.67;;;17.50;99.90;;;;;;4972027;28;20415;-75
2021/08/19 05:54:42;;;;;;;7.03;6.03;;;17.50;99.90;;;;;;4955259;28;20560;-75
2021/08/19 05:57:12;;;;;;;9.90;7.30;;;17.50;99.90;;;;;;4973201;28;20796;-75
2021/08/19 05:59:39;;;;;;;10.43;7.20;;;17.50;99.90;;;;;;4974071;28;21011;-75
2021/08/19 06:02:07;;;;;;;9.90;8.00;;;17.50;99.90;;;;;;4973932;28;20811;-76
2021/08/19 06:04:36;;;;;;;6.93;6.33;;;17.50;99.90;;;;;;4971980;28;20469;-75
2021/08/19 06:07:03;;;;;;;7.70;7.00;;;17.60;99.90;;;;;;4958138;28;20418;-76
2021/08/19 06:09:30;;;;;;;8.60;7.33;;;17.50;99.90;;;;;;4954737;28;20514;-73
2021/08/19 06:11:57;;;;;;;8.40;7.60;;;17.50;99.90;;;;;;4952359;28;20455;-76
2021/08/19 06:14:25;;;;;;;9.17;6.03;;;17.60;99.90;;;;;;4952900;28;20460;-74
2021/08/19 06:16:52;;;;;;;10.40;7.10;;;17.60;99.90;;;;;;4962713;28;20431;-74
2021/08/19 06:19:19;;;;;;;11.20;7.80;;;17.60;99.90;;;;;;4972487;28;20436;-74
2021/08/19 06:21:47;;;;;;;9.20;8.30;;;17.60;99.90;;;;;;4972579;28;20482;-74
2021/08/19 06:24:14;;;;;;;9.93;8.97;;;17.60;99.90;;;;;;4973841;28;20426;-74
2021/08/19 06:26:41;;;;;;;8.47;7.70;;;17.60;99.90;;;;;;4972707;28;20424;-75
2021/08/19 06:29:08;;;;;;;8.97;7.40;;;17.60;99.90;;;;;;4944342;28;20437;-76
2021/08/19 06:31:35;;;;;;;10.30;7.50;;;17.70;99.90;;;;;;4963350;28;20468;-75
2021/08/19 06:34:02;;;;;;;8.70;6.87;;;17.70;99.90;;;;;;4955701;28;20473;-74
2021/08/19 06:36:29;;;;;;;7.10;6.50;;;17.70;99.90;;;;;;4955418;28;20515;-74
2021/08/19 06:38:57;;;;;;;8.30;6.10;;;17.70;99.90;;;;;;4953860;28;20816;-78
2021/08/19 06:41:26;;;;;;;6.33;5.73;;;17.70;99.90;;;;;;4971899;28;20462;-75
2021/08/19 06:43:54;;;;;;;7.83;6.10;;;17.70;99.90;;;;;;4962837;28;20775;-74
2021/08/19 06:46:21;;;;;;;6.90;6.17;;;17.70;99.90;;;;;;4959580;28;20950;-74
2021/08/19 06:48:48;;;;;;;5.83;5.23;;;17.70;99.90;;;;;;4956367;28;20450;-74
2021/08/19 06:51:15;;;;;;;6.43;5.80;;;17.70;99.90;;;;;;4960661;28;20480;-75
2021/08/19 06:53:42;;;;;;;7.23;5.97;;;17.70;99.90;;;;;;4960664;28;20840;-75
2021/08/19 06:56:10;;;;;;;7.80;5.60;;;17.80;99.90;;;;;;4955602;28;20451;-75
2021/08/19 06:58:37;;;;;;;6.90;6.30;;;17.80;99.90;;;;;;4961681;28;20417;-75
2021/08/19 07:01:04;;;;;;;6.23;5.30;;;17.80;99.90;;;;;;4957549;28;20826;-75
2021/08/19 07:03:31;;;;;;;8.40;6.17;;;17.80;99.90;;;;;;4967375;28;20508;-75
2021/08/19 07:05:58;;;;;;;9.97;5.93;;;17.80;99.90;;;;;;4957446;28;20456;-74
2021/08/19 07:08:25;;;;;;;8.23;6.10;;;17.80;99.90;;;;;;4960772;28;20464;-75
2021/08/19 07:10:52;;;;;;;7.67;5.80;;;17.80;99.90;;;;;;4965953;28;20982;-73
2021/08/19 07:13:20;;;;;;;7.50;5.73;;;17.80;99.90;;;;;;4968005;28;20481;-73
2021/08/19 07:15:47;;;;;;;5.97;4.90;;;17.80;99.90;;;;;;4968042;28;20414;-74
2021/08/19 07:18:14;;;;;;;5.63;5.13;;;17.80;99.90;;;;;;4974406;28;20885;-73
2021/08/19 07:20:41;;;;;;;7.40;5.37;;;17.80;99.90;;;;;;4975411;28;20515;-73
2021/08/19 07:23:08;;;;;;;5.60;5.10;;;17.80;99.90;;;;;;4972798;28;20442;-73
2021/08/19 07:25:35;;;;;;;7.70;6.10;;;17.90;99.90;;;;;;4958119;28;20457;-73
2021/08/19 07:28:02;;;;;;;6.47;5.50;;;17.90;99.90;;;;;;4957291;28;20420;-73
2021/08/19 07:30:31;;;;;;;6.97;5.90;;;17.90;99.90;;;;;;4960252;28;20977;-73
2021/08/19 07:32:58;;;;;;;5.50;5.07;;;17.90;99.90;;;;;;4958140;28;20481;-73
2021/08/19 07:35:26;;;;;;;7.97;5.40;;;18.00;99.90;;;;;;4954776;28;20441;-73
2021/08/19 07:37:54;;;;;;;7.60;5.60;;;18.00;99.90;;;;;;4952087;28;20442;-74
2021/08/19 07:40:23;;;;;;;6.73;6.03;;;18.00;99.90;;;;;;4953641;29;20458;-74
2021/08/19 07:42:51;;;;;;;6.70;6.00;;;18.00;99.90;;;;;;4966591;28;20791;-73
2021/08/19 07:45:19;;;;;;;6.23;5.57;;;18.10;99.90;;;;;;4951313;29;20446;-73
2021/08/19 07:47:47;;;;;;;6.53;5.33;;;18.10;99.90;;;;;;4956746;28;20864;-73
2021/08/19 07:50:15;;;;;;;7.60;5.67;;;18.10;99.90;;;;;;4956436;28;20469;-73
2021/08/19 07:52:43;;;;;;;6.17;5.57;;;18.10;99.90;;;;;;4959226;28;20927;-74
2021/08/19 07:55:12;;;;;;;6.73;5.20;;;18.20;99.90;;;;;;4958313;28;20452;-74
2021/08/19 07:57:44;;;;;;;8.00;5.60;;;18.20;99.90;;;;;;4937506;28;20440;-74
2021/08/19 08:00:13;;;;;;;5.10;4.60;;;18.20;99.90;;;;;;4953964;28;20476;-75
2021/08/19 08:02:39;;;;;;;7.20;5.00;;;18.20;99.90;;;;;;4954704;28;20446;-74
2021/08/19 08:05:08;;;;;;;5.17;4.67;;;18.30;99.90;;;;;;4964937;28;20464;-74
2021/08/19 08:07:35;;;;;;;5.10;4.60;;;18.40;99.90;;;;;;4975738;28;20447;-74
2021/08/19 08:10:04;;;;;;;5.40;4.90;;;18.40;99.90;;;;;;4975569;28;20551;-74
2021/08/19 08:12:31;;;;;;;5.10;4.60;;;18.50;99.90;;;;;;4942041;28;20818;-74
2021/08/19 08:14:58;;;;;;;8.13;5.10;;;18.60;99.90;;;;;;4962159;28;20483;-74
2021/08/19 08:17:25;;;;;;;7.17;6.07;;;18.70;99.90;;;;;;4962789;28;20463;-74
2021/08/19 08:19:52;;;;;;;8.47;6.60;;;18.80;99.90;;;;;;4972302;28;20433;-74
2021/08/19 08:22:20;;;;;;;5.80;5.30;;;18.90;99.90;;;;;;4973107;28;20906;-74
2021/08/19 08:24:47;;;;;;;6.20;5.33;;;19.00;99.90;;;;;;4973187;28;20452;-74
2021/08/19 08:27:14;;;;;;;8.50;6.30;;;19.10;99.90;;;;;;4973978;28;20539;-74
2021/08/19 08:29:41;;;;;;;8.90;6.27;;;19.20;99.90;;;;;;4975262;28;20810;-74
2021/08/19 08:32:10;;;;;;;6.80;5.30;;;19.30;99.90;;;;;;4974980;28;20449;-73
2021/08/19 08:34:38;;;;;;;7.50;5.47;;;19.50;99.90;;;;;;4955858;29;20493;-74
2021/08/19 08:37:05;;;;;;;7.50;6.00;;;19.60;99.90;;;;;;4958364;28;20450;-74
2021/08/19 08:39:37;;;;;;;6.77;4.70;;;19.70;99.90;;;;;;4941823;28;20429;-74
2021/08/19 08:42:07;;;;;;;6.43;5.17;;;19.90;99.90;;;;;;4958907;28;20463;-74
2021/08/19 08:44:34;;;;;;;6.23;4.87;;;20.00;99.90;;;;;;4955959;28;20448;-74
2021/08/19 08:47:02;;;;;;;5.60;5.10;;;20.10;99.90;;;;;;4973353;28;20445;-74
2021/08/19 08:49:30;;;;;;;7.10;5.70;;;20.20;99.90;;;;;;4973411;28;20475;-74
2021/08/19 08:51:58;;;;;;;6.17;5.23;;;20.30;99.90;;;;;;4975212;28;20472;-74
2021/08/19 08:54:26;;;;;;;6.43;5.80;;;20.50;99.90;;;;;;4970704;28;20489;-74
2021/08/19 08:56:54;;;;;;;6.00;5.03;;;20.60;99.90;;;;;;4948380;28;20442;-73
2021/08/19 08:59:21;;;;;;;10.90;5.73;;;20.60;99.90;;;;;;4958093;28;20515;-74
2021/08/19 09:01:48;;;;;;;5.53;4.93;;;20.80;99.90;;;;;;4960014;28;20453;-74
2021/08/19 09:04:15;;;;;;;5.30;4.87;;;20.80;99.90;;;;;;4972226;28;20962;-74
2021/08/19 09:06:43;;;;;;;8.50;5.27;;;20.90;99.90;;;;;;4972619;28;20447;-73
2021/08/19 09:09:21;;;;;;;5.97;5.37;;;21.00;99.90;;;;;;4951839;28;20453;-74
2021/08/19 09:11:52;;;;;;;6.37;5.60;;;21.00;99.90;;;;;;4961276;28;20470;-74
2021/08/19 09:14:22;;;;;;;6.43;5.80;;;21.00;99.90;;;;;;4974796;28;20495;-73
2021/08/19 09:16:50;;;;;;;6.53;5.37;;;21.00;99.90;;;;;;4957413;28;20793;-75
2021/08/19 09:19:19;;;;;;;5.90;5.30;;;21.10;99.90;;;;;;4938741;28;20441;-73
2021/08/19 09:21:48;;;;;;;5.90;4.80;;;21.00;99.90;;;;;;4930833;28;20469;-74
2021/08/19 09:24:16;;;;;;;6.27;4.40;;;21.00;99.90;;;;;;4961141;28;20432;-74
2021/08/19 09:26:44;;;;;;;5.63;4.73;;;20.90;99.90;;;;;;4971988;28;20955;-76
2021/08/19 09:29:14;;;;;;;5.20;4.70;;;21.00;99.90;;;;;;4955049;28;20449;-77
2021/08/19 09:31:42;;;;;;;4.40;3.87;;;20.90;99.90;;;;;;4955559;28;20483;-76
2021/08/19 09:34:10;;;;;;;7.37;4.70;;;20.80;99.90;;;;;;4971755;28;20560;-74
2021/08/19 09:36:38;;;;;;;5.97;5.20;;;20.80;99.90;;;;;;4952839;28;20449;-74
2021/08/19 09:39:06;;;;;;;4.17;3.37;;;20.80;99.90;;;;;;4938092;28;20447;-75
2021/08/19 09:41:49;;;;;;;5.87;4.70;;;20.70;99.90;;;;;;4966286;28;20468;-74
2021/08/19 09:44:29;;;;;;;5.10;4.23;;;20.70;99.90;;;;;;4966879;28;20579;-74
2021/08/19 09:46:57;;;;;;;6.33;5.60;;;20.60;99.90;;;;;;4967381;28;20459;-75
2021/08/19 09:49:27;;;;;;;7.40;5.60;;;20.60;99.90;;;;;;4969177;28;20472;-75
2021/08/19 09:52:03;;;;;;;6.83;6.00;;;20.60;99.90;;;;;;4971107;28;20558;-74
2021/08/19 09:54:31;;;;;;;6.80;6.00;;;20.50;99.90;;;;;;4969688;28;20620;-73
2021/08/19 09:56:59;;;;;;;5.47;4.50;;;20.50;99.90;;;;;;4969757;28;20445;-76
2021/08/19 09:59:27;;;;;;;7.27;4.70;;;20.40;99.90;;;;;;4957835;28;20476;-73
2021/08/19 10:01:57;;;;;;;5.23;4.70;;;20.40;99.90;;;;;;4958640;28;20538;-74
2021/08/19 10:04:26;;;;;;;6.27;4.97;;;20.30;99.90;;;;;;4972039;28;20440;-72
2021/08/19 10:06:53;;;;;;;5.53;5.03;;;20.30;99.90;;;;;;4973126;28;20448;-73
2021/08/19 10:09:21;;;;;;;8.97;4.40;;;20.20;99.90;;;;;;4970955;28;20805;-73
2021/08/19 10:11:50;;;;;;;6.33;5.50;;;20.10;99.90;;;;;;4967673;28;20523;-75
2021/08/19 10:14:19;;;;;;;6.37;5.30;;;20.10;99.90;;;;;;4977593;28;20495;-76
2021/08/19 10:16:48;;;;;;;5.97;5.20;;;20.10;99.90;;;;;;4975430;28;20472;-76
2021/08/19 10:19:21;;;;;;;9.90;7.00;;;20.00;99.90;;;;;;4978106;28;20444;-76
2021/08/19 10:21:51;;;;;;;7.63;5.90;;;20.00;99.90;;;;;;4965071;28;20480;-75
2021/08/19 10:24:24;;;;;;;6.17;5.27;;;20.00;99.90;;;;;;4960795;28;20441;-76
2021/08/19 10:27:06;;;;;;;8.83;6.00;;;19.90;99.90;;;;;;4956223;28;20452;-77
2021/08/19 10:29:43;;;;;;;6.47;5.63;;;19.90;99.90;;;;;;4956218;28;20448;-75
2021/08/19 10:32:22;;;;;;;6.10;5.53;;;19.90;99.90;;;;;;4955251;28;20464;-74
2021/08/19 10:35:00;;;;;;;9.47;6.50;;;19.80;99.90;;;;;;4970110;28;20484;-74
2021/08/19 10:37:56;;;;;;;7.07;6.37;;;19.90;99.90;;;;;;4976556;28;20441;-74
2021/08/19 10:40:33;;;;;;;9.10;8.20;;;19.90;99.90;;;;;;4977213;28;20465;-75
2021/08/19 10:43:21;;;;;;;10.40;7.90;;;19.90;99.90;;;;;;4970006;28;20465;-75
2021/08/19 10:45:48;;;;;;;7.20;6.50;;;20.00;99.90;;;;;;4947605;28;20802;-74
2021/08/19 10:48:23;;;;;;;7.43;6.53;;;20.10;99.90;;;;;;4955423;28;20448;-74
2021/08/19 10:50:51;;;;;;;8.47;5.40;;;20.10;99.90;;;;;;4938633;28;20484;-75
2021/08/19 10:53:21;;;;;;;6.80;5.97;;;20.20;99.90;;;;;;4955988;29;20962;-74
2021/08/19 10:55:49;;;;;;;6.70;5.90;;;20.20;99.90;;;;;;4961345;28;20493;-76
2021/08/19 10:58:25;;;;;;;5.93;5.43;;;20.30;99.90;;;;;;4977462;28;20941;-74
2021/08/19 11:00:53;;;;;;;6.90;5.80;;;20.30;99.90;;;;;;4977284;28;20491;-75
2021/08/19 11:03:43;;;;;;;5.77;5.17;;;20.40;99.90;;;;;;4977357;28;20437;-75
2021/08/19 11:06:13;;;;;;;6.47;5.77;;;20.40;99.90;;;;;;4962344;28;20536;-76
2021/08/19 11:08:43;;;;;;;6.10;5.50;;;20.50;99.90;;;;;;4941936;29;20442;-75
2021/08/19 11:11:12;;;;;;;5.63;4.77;;;20.50;99.90;;;;;;4938927;29;20469;-75
2021/08/19 11:13:40;;;;;;;6.40;5.07;;;20.60;99.90;;;;;;4938341;29;20450;-74
2021/08/19 11:16:10;;;;;;;5.63;4.50;;;20.60;99.90;;;;;;4938600;28;20444;-74
2021/08/19 11:18:38;;;;;;;4.67;4.27;;;20.70;99.90;;;;;;4967964;28;20452;-75
2021/08/19 11:21:07;;;;;;;4.30;3.90;;;20.70;99.90;;;;;;4976718;28;20485;-75
2021/08/19 11:23:37;;;;;;;4.80;4.20;;;20.80;99.90;;;;;;4977020;28;20495;-75
2021/08/19 11:26:06;;;;;;;4.30;3.90;;;20.90;99.90;;;;;;4958997;28;20539;-75
2021/08/19 11:28:37;;;;;;;4.20;3.80;;;20.90;99.90;;;;;;4928180;28;20445;-76
2021/08/19 11:31:12;;;;;;;4.97;4.50;;;20.90;99.90;;;;;;4957747;28;20473;-74
2021/08/19 11:33:39;;;;;;;4.90;4.20;;;21.00;99.90;;;;;;4937872;29;20449;-74
2021/08/19 11:36:08;;;;;;;5.87;4.47;;;21.10;99.90;;;;;;4955011;29;20496;-74
2021/08/19 11:38:36;;;;;;;5.07;4.57;;;21.10;99.90;;;;;;4938283;29;20468;-74
2021/08/19 11:41:16;;;;;;;4.83;4.40;;;21.10;99.90;;;;;;4970905;28;20503;-75
2021/08/19 11:43:43;;;;;;;4.60;4.20;;;21.10;99.90;;;;;;4969767;28;20466;-74
2021/08/19 11:46:12;;;;;;;5.43;4.93;;;21.10;99.90;;;;;;4976523;28;20448;-75
2021/08/19 11:48:48;;;;;;;5.30;4.50;;;21.00;99.90;;;;;;4971160;28;20452;-75
2021/08/19 11:51:21;;;;;;;5.53;4.63;;;21.00;99.90;;;;;;4959153;28;21086;-76
2021/08/19 11:53:52;;;;;;;6.37;4.50;;;21.00;99.90;;;;;;4954782;28;20452;-74
2021/08/19 11:56:19;;;;;;;4.73;4.10;;;20.90;99.90;;;;;;4954495;28;20450;-75
2021/08/19 11:58:47;;;;;;;4.30;3.90;;;21.00;99.90;;;;;;4953659;28;20961;-75
2021/08/19 12:01:14;;;;;;;4.70;4.10;;;20.90;99.90;;;;;;4955233;28;20474;-74
2021/08/19 12:03:42;;;;;;;4.27;3.87;;;20.90;99.90;;;;;;4975320;28;20445;-73
2021/08/19 12:06:11;;;;;;;4.27;3.40;;;21.00;99.90;;;;;;4975117;28;20455;-74
2021/08/19 12:08:39;;;;;;;2.90;2.70;;;21.00;99.90;;;;;;4959150;28;20449;-74
2021/08/19 12:11:09;;;;;;;3.10;2.73;;;21.00;99.90;;;;;;4967851;28;20809;-74
2021/08/19 12:13:40;;;;;;;3.80;2.30;;;21.10;99.90;;;;;;4960231;28;20445;-75
2021/08/19 12:16:09;;;;;;;2.80;2.20;;;21.10;99.90;;;;;;4954911;28;20994;-74
2021/08/19 12:18:36;;;;;;;3.27;2.03;;;21.20;99.90;;;;;;4954291;29;20452;-75
2021/08/19 12:21:19;;;;;;;3.03;2.37;;;21.30;99.90;;;;;;4954191;29;20466;-74
2021/08/19 12:23:47;;;;;;;3.50;2.63;;;21.30;99.90;;;;;;4956335;28;20452;-74
2021/08/19 12:26:17;;;;;;;2.77;2.57;;;21.40;99.90;;;;;;4976195;28;20436;-74
2021/08/19 12:28:55;;;;;;;4.10;2.73;;;21.40;99.90;;;;;;4975848;28;20790;-74
2021/08/19 12:31:22;;;;;;;3.07;2.53;;;21.50;99.90;;;;;;4974493;28;20511;-74
2021/08/19 12:34:02;;;;;;;3.37;2.97;;;21.60;99.90;;;;;;4963153;28;20434;-75
2021/08/19 12:36:31;;;;;;;3.63;2.60;;;21.60;99.90;;;;;;4959171;28;20483;-74
2021/08/19 12:39:15;;;;;;;4.13;2.77;;;21.70;99.90;;;;;;4953435;28;20460;-75
2021/08/19 12:41:44;;;;;;;3.30;2.80;;;21.70;99.90;;;;;;4952513;29;20468;-74
2021/08/19 12:44:13;;;;;;;3.33;3.03;;;21.80;99.90;;;;;;4953784;29;20836;-75
2021/08/19 12:46:41;;;;;;;3.30;2.73;;;21.80;99.90;;;;;;4948003;28;20811;-75
2021/08/19 12:49:24;;;;;;;3.00;2.80;;;21.90;99.90;;;;;;4975449;28;20950;-75
2021/08/19 12:52:14;;;;;;;4.37;2.60;;;21.90;99.90;;;;;;4960649;28;20468;-74